Time;durP1;ratioP1;P1;durP2;ratioP2;P2;SDS_P1;SDS_P2;PMS_P1;PMS_P2;Temp;Humidity;BMP_temperature;BMP_pressure;BME280_temperature;BME280_humidity;BME280_pressure;Samples;Min_cycle;Max_cycle;Signal;HPM_P1;HPM_P2
2023/06/15 00:01:54;;;;;;;37.03;24.23;;;;;;;20.90;91.02;100533.47;5057455;28;20122;-89
2023/06/15 00:04:19;;;;;;;41.03;26.92;;;;;;;20.86;90.99;100521.22;5074427;28;20094;-88
2023/06/15 00:06:45;;;;;;;34.88;25.42;;;;;;;20.92;91.17;100531.41;5076355;28;20037;-87
2023/06/15 00:09:12;;;;;;;38.28;28.02;;;;;;;20.72;91.27;100494.81;5087835;28;20059;-91
2023/06/15 00:11:38;;;;;;;40.60;27.95;;;;;;;20.82;91.39;100504.41;5096488;28;20036;-92
2023/06/15 00:14:03;;;;;;;44.03;27.30;;;;;;;20.83;91.41;100503.34;5099456;28;20048;-89
2023/06/15 00:16:31;;;;;;;46.40;27.83;;;;;;;20.87;91.48;100509.25;5093789;28;20077;-88
2023/06/15 00:18:58;;;;;;;38.72;27.17;;;;;;;20.86;91.54;100504.81;5094613;28;20452;-87
2023/06/15 00:21:27;;;;;;;46.53;29.45;;;;;;;21.04;91.56;100538.03;5094261;28;20032;-87
2023/06/15 00:23:52;;;;;;;44.10;29.73;;;;;;;20.85;91.31;100493.06;5094642;28;20047;-88
2023/06/15 00:26:18;;;;;;;41.17;27.75;;;;;;;20.93;91.43;100509.34;5094946;28;20120;-87
2023/06/15 00:28:43;;;;;;;40.53;27.60;;;;;;;21.02;91.40;100516.38;5093707;28;20134;-87
2023/06/15 00:31:12;;;;;;;38.53;27.13;;;;;;;21.00;91.29;100512.16;5094662;28;20036;-86
2023/06/15 00:33:37;;;;;;;46.03;27.98;;;;;;;20.98;91.47;100514.22;5096222;28;20055;-86
2023/06/15 00:36:05;;;;;;;40.47;26.73;;;;;;;21.03;91.46;100522.69;5093806;28;20377;-87
2023/06/15 00:38:31;;;;;;;40.13;28.23;;;;;;;20.92;91.15;100504.91;5094526;28;20488;-88
2023/06/15 00:40:57;;;;;;;40.90;27.10;;;;;;;20.85;91.11;100493.06;5094523;28;20028;-88
2023/06/15 00:43:25;;;;;;;39.47;28.25;;;;;;;20.95;91.62;100518.19;5094762;28;20059;-88
2023/06/15 00:45:51;;;;;;;35.22;26.75;;;;;;;20.83;91.81;100499.75;5094720;28;20027;-89
2023/06/15 00:48:16;;;;;;;42.72;29.42;;;;;;;20.76;92.16;100493.38;5094400;28;20115;-88
2023/06/15 00:50:42;;;;;;;37.08;26.65;;;;;;;20.84;92.49;100495.97;5094303;28;20022;-88
2023/06/15 00:53:09;;;;;;;35.65;27.23;;;;;;;20.82;92.61;100485.25;5094756;28;20028;-88
2023/06/15 00:55:37;;;;;;;32.92;24.33;;;;;;;20.77;92.49;100473.19;5095074;28;20442;-87
2023/06/15 00:58:04;;;;;;;31.35;23.85;;;;;;;20.99;92.83;100515.91;5094081;28;20411;-89
2023/06/15 01:00:32;;;;;;;33.78;21.90;;;;;;;20.81;93.11;100488.16;5096635;28;20036;-88
2023/06/15 01:02:59;;;;;;;32.50;23.13;;;;;;;20.91;93.39;100502.38;5095647;28;20096;-86
2023/06/15 01:05:25;;;;;;;34.58;24.75;;;;;;;20.87;93.59;100485.50;5101549;28;20091;-85
2023/06/15 01:07:54;;;;;;;38.90;26.77;;;;;;;20.98;94.06;100508.75;5111203;28;20024;-83
2023/06/15 01:10:23;;;;;;;39.45;26.23;;;;;;;20.83;94.38;100497.00;5106394;28;20427;-83
2023/06/15 01:12:53;;;;;;;38.70;27.23;;;;;;;20.71;95.01;100485.75;5093678;28;20110;-85
2023/06/15 01:15:21;;;;;;;44.58;26.70;;;;;;;20.75;95.57;100508.09;5105661;28;20027;-82
2023/06/15 01:17:53;;;;;;;40.50;27.58;;;;;;;20.71;96.63;100525.91;5098559;28;20061;-87
2023/06/15 01:20:24;;;;;;;48.13;29.83;;;;;;;20.59;97.92;100512.75;5093662;28;20024;-85
2023/06/15 01:23:19;;;;;;;50.08;32.60;;;;;;;20.58;98.68;100519.25;5091316;28;20126;-88
2023/06/15 01:25:44;;;;;;;50.70;29.38;;;;;;;20.61;99.54;100529.78;5092807;28;20503;-86
2023/06/15 01:28:11;;;;;;;51.38;30.92;;;;;;;20.65;100.00;100530.25;5092406;28;20036;-86
2023/06/15 01:30:42;;;;;;;42.88;28.67;;;;;;;20.56;100.00;100513.13;5092966;28;20028;-85
2023/06/15 01:33:08;;;;;;;41.20;28.05;;;;;;;20.48;100.00;100496.00;5094229;28;20052;-86
2023/06/15 01:35:34;;;;;;;40.30;26.58;;;;;;;20.50;100.00;100502.97;5094099;28;20066;-88
2023/06/15 01:38:00;;;;;;;37.10;24.85;;;;;;;20.59;100.00;100520.94;5102226;28;20048;-83
2023/06/15 01:40:27;;;;;;;33.83;23.85;;;;;;;20.55;100.00;100516.03;5103567;28;20050;-84
2023/06/15 01:42:52;;;;;;;32.88;23.83;;;;;;;20.48;100.00;100502.31;5090903;28;20039;-84
2023/06/15 01:45:20;;;;;;;30.30;22.90;;;;;;;20.46;99.79;100496.19;5091770;28;20032;-85
2023/06/15 01:47:48;;;;;;;28.00;22.20;;;;;;;20.53;99.66;100515.41;5091311;28;20043;-85
2023/06/15 01:50:14;;;;;;;33.47;21.67;;;;;;;20.46;99.20;100492.59;5092415;28;20028;-84
2023/06/15 01:52:40;;;;;;;28.42;20.95;;;;;;;20.50;98.72;100505.69;5091778;28;20032;-86
2023/06/15 01:55:07;;;;;;;31.65;20.48;;;;;;;20.52;98.27;100509.09;5093686;28;20020;-84
2023/06/15 01:57:37;;;;;;;34.47;19.83;;;;;;;20.51;97.67;100506.56;5094096;28;20027;-82
2023/06/15 02:00:08;;;;;;;29.02;20.98;;;;;;;20.49;97.57;100504.00;5092541;28;20050;-82
2023/06/15 02:02:33;;;;;;;44.55;22.23;;;;;;;20.35;97.73;100499.41;5099344;28;20036;-84
2023/06/15 02:04:59;;;;;;;28.63;19.90;;;;;;;20.32;97.65;100491.59;5106906;28;20039;-83
2023/06/15 02:07:25;;;;;;;22.90;16.75;;;;;;;20.28;96.82;100505.81;5098903;28;20028;-84
2023/06/15 02:09:52;;;;;;;27.70;17.05;;;;;;;20.27;96.40;100496.81;5090698;28;20081;-84
2023/06/15 02:12:17;;;;;;;25.88;18.00;;;;;;;20.35;95.83;100507.63;5090646;28;20035;-82
2023/06/15 02:14:43;;;;;;;26.88;18.98;;;;;;;20.23;95.71;100498.19;5091120;28;20395;-82
2023/06/15 02:17:09;;;;;;;35.72;19.38;;;;;;;20.19;95.81;100496.84;5090486;28;20799;-84
2023/06/15 02:19:35;;;;;;;29.85;18.30;;;;;;;20.27;96.11;100509.63;5091018;28;20024;-84
2023/06/15 02:22:00;;;;;;;30.05;18.23;;;;;;;20.30;95.78;100511.97;5090784;28;20108;-84
2023/06/15 02:24:26;;;;;;;28.90;18.95;;;;;;;20.26;95.38;100503.31;5091027;28;20020;-83
2023/06/15 02:26:51;;;;;;;35.63;23.17;;;;;;;20.19;95.40;100506.94;5090313;28;20070;-83
2023/06/15 02:29:17;;;;;;;40.63;21.88;;;;;;;20.16;95.71;100507.31;5090894;28;20024;-86
2023/06/15 02:31:42;;;;;;;44.17;25.52;;;;;;;20.20;95.98;100520.41;5090518;28;20032;-84
2023/06/15 02:34:08;;;;;;;43.85;25.42;;;;;;;20.20;96.37;100525.03;5091985;28;20074;-84
2023/06/15 02:36:34;;;;;;;49.72;28.50;;;;;;;20.23;96.19;100525.50;5095859;28;20020;-85
2023/06/15 02:39:02;;;;;;;63.53;33.28;;;;;;;20.37;96.27;100532.84;5094429;28;20044;-85
2023/06/15 02:41:27;;;;;;;56.60;33.20;;;;;;;20.26;96.48;100508.75;5096540;28;20024;-85
2023/06/15 02:43:53;;;;;;;61.80;33.78;;;;;;;20.24;96.51;100507.22;5103885;28;20040;-86
2023/06/15 02:46:20;;;;;;;72.30;38.95;;;;;;;20.26;97.19;100519.69;5107189;28;20032;-84
2023/06/15 02:48:51;;;;;;;64.03;38.40;;;;;;;20.31;97.63;100522.69;5100448;28;20028;-85
2023/06/15 02:51:19;;;;;;;76.10;39.58;;;;;;;20.32;97.55;100524.38;5096219;28;20047;-85
2023/06/15 02:53:48;;;;;;;63.90;37.15;;;;;;;20.33;97.95;100533.44;5092037;28;20463;-84
2023/06/15 02:56:18;;;;;;;70.78;38.08;;;;;;;20.16;98.48;100507.31;5095227;28;20028;-86
2023/06/15 02:58:57;;;;;;;62.13;36.92;;;;;;;20.37;98.73;100532.00;5098751;28;20063;-87
2023/06/15 03:01:23;;;;;;;65.85;38.35;;;;;;;20.12;98.82;100495.91;5114148;28;20024;-87
2023/06/15 03:03:52;;;;;;;70.30;38.08;;;;;;;20.34;99.12;100533.22;5109084;28;20028;-88
2023/06/15 03:06:18;;;;;;;64.20;36.40;;;;;;;20.14;98.54;100493.00;5091707;28;20024;-86
2023/06/15 03:08:44;;;;;;;65.60;37.28;;;;;;;20.20;98.48;100500.44;5091128;28;20545;-89
2023/06/15 03:11:10;;;;;;;64.50;37.17;;;;;;;20.33;97.80;100515.16;5090104;28;20024;-89
2023/06/15 03:13:36;;;;;;;61.67;36.47;;;;;;;20.29;97.52;100508.38;5090654;28;20494;-87
2023/06/15 03:16:56;;;;;;;;;;;;;;;;;;;;;
2023/06/15 03:19:25;;;;;;;67.30;30.15;;;;;;;20.43;95.86;100526.63;5013701;28;20056;-93
2023/06/15 03:21:51;;;;;;;44.42;26.88;;;;;;;20.28;95.04;100514.88;5011894;28;20468;-91
2023/06/15 03:24:21;;;;;;;38.95;23.80;;;;;;;20.23;94.33;100503.66;4995363;28;20156;-90
2023/06/15 03:26:47;;;;;;;47.85;22.48;;;;;;;20.14;93.16;100493.88;4997039;28;20049;-92
2023/06/15 03:29:13;;;;;;;39.75;21.85;;;;;;;20.41;92.35;100545.09;5014343;28;20065;-92
2023/06/15 03:31:40;;;;;;;32.72;20.27;;;;;;;20.04;91.00;100499.59;4995865;28;20768;-89
2023/06/15 03:34:10;;;;;;;31.25;19.15;;;;;;;20.10;90.13;100511.66;4995754;28;20045;-92
2023/06/15 03:36:36;;;;;;;37.75;19.67;;;;;;;20.05;89.83;100511.38;5023868;28;20037;-91
2023/06/15 03:39:03;;;;;;;34.65;20.25;;;;;;;20.32;89.33;100543.50;5011001;28;20057;-90
2023/06/15 03:41:30;;;;;;;38.38;21.42;;;;;;;20.28;88.99;100522.22;5011754;28;20097;-88
2023/06/15 03:44:27;;;;;;;43.80;23.00;;;;;;;20.42;88.52;100540.50;5002147;28;20112;-92
2023/06/15 03:47:17;;;;;;;41.13;22.73;;;;;;;20.27;89.06;100526.00;5011666;28;20042;-95
2023/06/15 03:49:43;;;;;;;42.55;24.60;;;;;;;20.36;89.81;100533.91;4987134;28;20055;-90
2023/06/15 03:52:08;;;;;;;57.08;24.60;;;;;;;20.50;90.08;100549.41;4980303;28;20626;-88
2023/06/15 03:54:34;;;;;;;56.67;26.15;;;;;;;20.52;90.25;100552.78;4964232;28;20035;-93
2023/06/15 03:56:59;;;;;;;83.35;26.85;;;;;;;20.54;90.24;100541.69;5046245;28;20029;-95
2023/06/15 03:59:25;;;;;;;61.08;32.40;;;;;;;20.50;90.10;100533.03;5055495;28;20464;-89
2023/06/15 04:01:51;;;;;;;57.83;35.80;;;;;;;20.57;90.57;100528.50;5041660;28;20051;-83
2023/06/15 04:04:16;;;;;;;59.15;36.53;;;;;;;20.69;91.68;100560.78;5066678;28;20100;-93
2023/06/15 04:06:46;;;;;;;46.65;32.47;;;;;;;20.58;92.03;100532.91;5064051;28;20048;-85
2023/06/15 04:09:13;;;;;;;46.58;32.20;;;;;;;20.85;92.24;100564.16;5049868;28;20481;-84
2023/06/15 04:11:40;;;;;;;59.97;34.70;;;;;;;20.80;91.54;100549.34;5051592;28;20033;-90
2023/06/15 04:14:05;;;;;;;51.97;35.03;;;;;;;20.78;91.40;100535.88;5060124;28;20040;-91
2023/06/15 04:16:31;;;;;;;53.53;31.73;;;;;;;21.03;91.56;100566.44;5090961;28;20040;-83
2023/06/15 04:18:57;;;;;;;61.13;31.73;;;;;;;20.99;91.40;100570.59;5090261;28;20039;-80
2023/06/15 04:21:22;;;;;;;48.58;30.40;;;;;;;21.01;91.20;100563.03;5089740;28;20174;-81
2023/06/15 04:23:48;;;;;;;53.15;31.50;;;;;;;20.98;91.02;100552.50;5092121;28;20488;-89
2023/06/15 04:26:13;;;;;;;56.05;29.27;;;;;;;21.03;90.60;100556.38;5093100;28;20046;-92
2023/06/15 04:29:00;;;;;;;56.35;30.02;;;;;;;21.30;90.24;100576.66;5091982;28;20060;-91
2023/06/15 04:31:25;;;;;;;66.40;32.58;;;;;;;21.40;89.29;100579.91;5075667;28;20524;-86
2023/06/15 04:33:52;;;;;;;50.60;31.38;;;;;;;21.53;88.94;100580.03;5097887;28;20064;-87
2023/06/15 04:36:18;;;;;;;60.13;29.73;;;;;;;21.58;88.28;100574.81;5092605;28;20035;-91
2023/06/15 04:38:48;;;;;;;49.65;29.98;;;;;;;21.70;87.24;100578.72;5072471;28;20052;-86
2023/06/15 04:41:14;;;;;;;44.40;31.85;;;;;;;21.81;86.67;100579.19;5089653;28;20483;-85
2023/06/15 04:43:40;;;;;;;54.03;34.97;;;;;;;21.89;86.64;100596.38;5090169;28;20063;-88
2023/06/15 04:46:06;;;;;;;58.28;35.10;;;;;;;21.93;86.61;100585.84;5092550;28;20063;-88
2023/06/15 04:48:32;;;;;;;61.08;32.30;;;;;;;21.94;86.18;100576.59;5097166;28;20098;-88
2023/06/15 04:50:59;;;;;;;61.15;33.28;;;;;;;22.07;86.05;100582.19;5095472;28;20086;-88
2023/06/15 04:53:25;;;;;;;63.38;35.92;;;;;;;22.12;85.81;100575.03;5110519;28;20039;-84
2023/06/15 04:55:51;;;;;;;95.93;35.30;;;;;;;22.30;85.01;100590.09;5097934;28;20028;-79
2023/06/15 04:58:17;;;;;;;44.03;30.23;;;;;;;22.30;84.52;100580.00;5090824;28;20641;-78
2023/06/15 05:00:43;;;;;;;59.42;31.60;;;;;;;22.46;83.54;100598.00;5090288;28;20035;-78
2023/06/15 05:03:10;;;;;;;50.58;32.13;;;;;;;22.34;83.55;100588.66;5090186;28;20032;-85
2023/06/15 05:05:35;;;;;;;60.72;34.30;;;;;;;22.32;83.65;100597.09;5080031;28;20081;-80
2023/06/15 05:08:01;;;;;;;54.92;36.80;;;;;;;22.39;84.12;100583.41;5076029;28;20029;-84
2023/06/15 05:10:26;;;;;;;65.57;39.22;;;;;;;22.27;84.18;100574.06;5075403;28;20028;-91
2023/06/15 05:12:52;;;;;;;65.57;38.95;;;;;;;22.46;84.79;100596.13;5077314;28;20116;-91
2023/06/15 05:15:18;;;;;;;54.53;33.30;;;;;;;22.40;83.97;100594.19;5078408;28;20031;-90
2023/06/15 05:17:43;;;;;;;48.30;31.55;;;;;;;22.29;84.11;100597.50;5076322;28;20119;-88
2023/06/15 05:20:10;;;;;;;75.20;32.50;;;;;;;22.19;84.63;100597.00;5075169;28;20025;-90
2023/06/15 05:22:35;;;;;;;78.80;34.15;;;;;;;22.26;85.46;100599.81;5073547;28;20029;-90
2023/06/15 05:25:02;;;;;;;81.00;30.50;;;;;;;22.33;86.08;100593.28;5072821;28;20131;-91
2023/06/15 05:27:28;;;;;;;41.03;26.83;;;;;;;22.41;85.60;100609.59;5057389;28;20547;-92
2023/06/15 05:29:56;;;;;;;46.95;27.27;;;;;;;22.39;85.62;100597.13;5054758;28;20167;-92
2023/06/15 05:32:21;;;;;;;48.15;24.65;;;;;;;22.30;85.61;100593.69;5038173;28;20073;-91
2023/06/15 05:35:07;;;;;;;38.55;23.95;;;;;;;22.37;86.38;100619.25;5037730;28;20611;-91
2023/06/15 05:37:36;;;;;;;33.03;19.73;;;;;;;22.35;86.95;100606.81;5015877;28;20049;-93
2023/06/15 05:40:04;;;;;;;31.75;18.05;;;;;;;22.23;86.07;100579.13;5022935;28;20074;-92
2023/06/15 05:42:50;;;;;;;39.28;20.20;;;;;;;22.46;85.45;100629.00;4997753;28;20081;-91
2023/06/15 05:45:17;;;;;;;33.95;16.50;;;;;;;22.34;85.78;100603.22;5004564;28;20034;-93
2023/06/15 05:47:42;;;;;;;38.63;21.48;;;;;;;22.25;87.17;100604.44;4988404;28;20137;-93
2023/06/15 05:50:08;;;;;;;25.92;17.17;;;;;;;22.32;88.37;100621.78;5015124;28;20069;-93
2023/06/15 05:52:53;;;;;;;34.65;18.77;;;;;;;22.21;89.70;100617.69;5014719;28;20049;-93
2023/06/15 05:55:19;;;;;;;32.50;20.25;;;;;;;22.27;90.57;100616.03;4976529;28;20114;-91
2023/06/15 05:57:45;;;;;;;43.28;20.98;;;;;;;22.30;90.67;100599.19;4972557;28;20214;-91
2023/06/15 06:00:12;;;;;;;49.85;20.52;;;;;;;22.38;90.21;100599.03;4978084;28;20057;-91
2023/06/15 06:02:37;;;;;;;39.50;19.92;;;;;;;22.54;89.47;100606.91;4996410;28;20042;-91
2023/06/15 06:05:03;;;;;;;55.90;20.58;;;;;;;22.46;88.49;100585.16;5032906;28;20072;-91
2023/06/15 06:07:29;;;;;;;30.90;18.98;;;;;;;22.73;88.52;100614.44;5035657;28;20122;-85
2023/06/15 06:09:55;;;;;;;46.65;19.17;;;;;;;22.72;87.35;100625.59;5038088;28;20170;-90
2023/06/15 06:12:20;;;;;;;24.88;17.70;;;;;;;22.74;87.10;100635.31;5034038;28;20119;-85
2023/06/15 06:14:46;;;;;;;31.98;20.02;;;;;;;22.65;87.68;100631.06;5050810;28;20052;-89
2023/06/15 06:17:11;;;;;;;33.38;19.80;;;;;;;22.55;88.19;100613.25;5036228;28;20028;-91
2023/06/15 06:19:38;;;;;;;30.88;17.85;;;;;;;22.59;87.99;100612.66;5059347;28;20040;-90
2023/06/15 06:22:04;;;;;;;27.45;17.50;;;;;;;22.67;88.28;100617.97;5072169;28;20416;-86
2023/06/15 06:24:30;;;;;;;28.20;17.90;;;;;;;22.60;87.94;100619.81;5070430;28;20037;-82
2023/06/15 06:26:55;;;;;;;31.67;18.58;;;;;;;22.73;87.96;100628.13;5065615;28;20039;-80
2023/06/15 06:29:21;;;;;;;33.95;18.08;;;;;;;22.78;88.15;100616.56;5070581;28;20034;-84
2023/06/15 06:31:46;;;;;;;32.58;19.08;;;;;;;22.67;87.23;100607.00;5091728;28;20086;-84
2023/06/15 06:34:12;;;;;;;61.67;21.10;;;;;;;22.80;87.68;100621.84;5089827;28;20030;-83
2023/06/15 06:36:37;;;;;;;49.03;21.88;;;;;;;22.81;88.25;100616.16;5089421;28;20023;-86
2023/06/15 06:39:03;;;;;;;38.80;20.25;;;;;;;22.83;88.33;100604.97;5091359;28;20496;-80
2023/06/15 06:41:28;;;;;;;33.40;18.40;;;;;;;23.12;88.03;100623.84;5092413;28;20474;-85
2023/06/15 06:43:53;;;;;;;26.30;18.15;;;;;;;23.15;86.32;100620.69;5093228;28;20055;-84
2023/06/15 06:46:20;;;;;;;40.83;19.48;;;;;;;23.23;85.68;100615.88;5112508;28;20028;-96
2023/06/15 06:48:45;;;;;;;33.20;18.63;;;;;;;23.38;84.76;100629.41;5097279;28;20479;-82
2023/06/15 06:51:11;;;;;;;21.23;14.77;;;;;;;23.25;84.00;100624.75;5091561;28;20056;-85
2023/06/15 06:53:36;;;;;;;23.70;14.10;;;;;;;23.01;85.95;100624.44;5090090;28;20488;-82
2023/06/15 06:56:02;;;;;;;44.75;15.90;;;;;;;23.07;86.12;100615.41;5089090;28;20471;-80
2023/06/15 06:58:27;;;;;;;42.83;16.20;;;;;;;23.15;86.43;100637.16;5087122;28;20480;-81
2023/06/15 07:00:53;;;;;;;27.42;14.32;;;;;;;23.10;85.74;100623.22;5089849;28;20024;-80
2023/06/15 07:03:19;;;;;;;23.00;15.02;;;;;;;23.14;85.86;100632.75;5089450;28;20031;-83
2023/06/15 07:05:46;;;;;;;19.85;14.27;;;;;;;23.23;85.11;100639.72;5088678;28;20364;-81
2023/06/15 07:08:11;;;;;;;29.88;14.07;;;;;;;23.18;84.82;100623.03;5088898;28;20046;-83
2023/06/15 07:10:37;;;;;;;19.48;13.35;;;;;;;23.12;85.51;100627.44;5089585;28;20483;-83
2023/06/15 07:13:02;;;;;;;30.33;13.40;;;;;;;23.31;85.87;100636.78;5089132;28;20034;-79
2023/06/15 07:15:31;;;;;;;24.13;14.10;;;;;;;23.25;84.84;100615.66;5088938;28;20032;-78
2023/06/15 07:17:56;;;;;;;27.38;13.70;;;;;;;23.41;85.02;100636.44;5089113;28;20078;-84
2023/06/15 07:20:22;;;;;;;30.92;13.95;;;;;;;23.50;83.54;100638.78;5092085;28;20028;-80
2023/06/15 07:22:47;;;;;;;22.75;13.25;;;;;;;23.41;83.92;100626.28;5101378;28;20045;-80
2023/06/15 07:25:13;;;;;;;28.63;13.82;;;;;;;23.51;83.14;100636.88;5107884;28;20032;-81
2023/06/15 07:27:38;;;;;;;27.48;13.20;;;;;;;23.48;83.77;100629.06;5106565;28;20036;-80
2023/06/15 07:30:04;;;;;;;20.58;13.93;;;;;;;23.58;83.34;100638.56;5092750;28;20024;-79
2023/06/15 07:32:30;;;;;;;25.23;13.25;;;;;;;23.57;82.71;100617.66;5076375;28;20035;-79
2023/06/15 07:34:55;;;;;;;20.70;13.70;;;;;;;23.46;82.37;100612.78;5070325;28;20028;-79
2023/06/15 07:37:21;;;;;;;22.45;13.50;;;;;;;23.47;82.35;100622.72;5069607;28;20040;-79
2023/06/15 07:39:46;;;;;;;16.77;12.82;;;;;;;23.51;82.20;100637.72;5069080;28;20027;-79
2023/06/15 07:42:12;;;;;;;31.65;13.57;;;;;;;23.66;82.43;100637.53;5067851;28;20063;-77
2023/06/15 07:44:37;;;;;;;30.35;14.18;;;;;;;23.69;82.44;100637.13;5068245;28;20031;-78
2023/06/15 07:47:03;;;;;;;30.95;15.13;;;;;;;23.70;81.77;100634.13;5072061;28;20449;-77
2023/06/15 07:49:28;;;;;;;35.20;12.93;;;;;;;23.90;81.19;100645.16;5070789;28;20028;-80
2023/06/15 07:51:54;;;;;;;34.78;13.55;;;;;;;23.96;80.62;100627.81;5070932;28;20070;-82
2023/06/15 07:54:20;;;;;;;19.35;12.27;;;;;;;23.93;80.05;100635.63;5071096;28;20029;-80
2023/06/15 07:56:45;;;;;;;18.10;13.85;;;;;;;24.08;79.42;100630.78;5070265;28;20484;-79
2023/06/15 07:59:11;;;;;;;27.88;12.07;;;;;;;24.18;78.83;100640.31;5071212;28;20043;-78
2023/06/15 08:01:37;;;;;;;28.63;11.50;;;;;;;24.11;77.77;100633.97;5070839;28;20178;-79
2023/06/15 08:04:03;;;;;;;45.13;12.88;;;;;;;23.93;78.32;100620.00;5071311;28;20036;-87
2023/06/15 08:06:28;;;;;;;17.98;11.20;;;;;;;24.10;78.58;100648.72;5070933;28;20032;-77
2023/06/15 08:08:56;;;;;;;22.08;11.70;;;;;;;23.98;78.71;100638.59;5070957;28;20111;-77
2023/06/15 08:11:22;;;;;;;14.50;11.40;;;;;;;23.80;80.48;100641.97;5070290;28;20043;-79
2023/06/15 08:13:47;;;;;;;28.17;11.52;;;;;;;23.93;80.59;100647.47;5069301;28;20033;-76
2023/06/15 08:16:25;;;;;;;21.42;12.13;;;;;;;24.01;79.79;100641.75;5071456;28;20024;-85
2023/06/15 08:18:50;;;;;;;19.38;10.48;;;;;;;24.06;79.46;100635.66;5073114;28;20066;-84
2023/06/15 08:21:17;;;;;;;21.40;11.75;;;;;;;24.05;79.11;100642.19;5073409;28;20069;-86
2023/06/15 08:23:42;;;;;;;21.63;11.13;;;;;;;24.11;79.21;100655.97;5070193;28;20408;-79
2023/06/15 08:26:08;;;;;;;24.98;11.57;;;;;;;24.18;79.34;100661.47;5070200;28;20030;-78
2023/06/15 08:28:33;;;;;;;32.45;13.05;;;;;;;24.22;79.39;100659.97;5070344;28;20079;-78
2023/06/15 08:30:59;;;;;;;25.20;11.70;;;;;;;24.18;78.34;100656.81;5073504;28;20452;-76
2023/06/15 08:33:24;;;;;;;31.17;12.65;;;;;;;23.85;78.99;100633.97;5093828;28;20408;-80
2023/06/15 08:35:50;;;;;;;20.85;10.80;;;;;;;23.95;79.43;100655.50;5099069;28;20063;-84
2023/06/15 08:38:15;;;;;;;29.65;11.60;;;;;;;23.89;79.77;100623.38;5105015;28;20104;-86
2023/06/15 08:40:41;;;;;;;22.88;11.73;;;;;;;24.09;79.64;100633.31;5113165;28;20024;-82
2023/06/15 08:43:08;;;;;;;44.50;12.75;;;;;;;24.28;77.93;100640.72;5108251;28;20035;-84
2023/06/15 08:45:39;;;;;;;22.00;12.18;;;;;;;24.25;77.44;100634.78;5092488;28;20119;-84
2023/06/15 08:48:07;;;;;;;23.98;12.55;;;;;;;24.05;77.97;100620.19;5092478;28;20111;-84
2023/06/15 08:50:36;;;;;;;23.50;10.77;;;;;;;24.05;78.13;100633.94;5093103;28;20032;-84
2023/06/15 08:53:04;;;;;;;22.55;10.48;;;;;;;23.91;78.64;100616.63;5093576;28;20028;-84
2023/06/15 08:55:31;;;;;;;16.20;11.40;;;;;;;23.81;79.33;100602.47;5094572;28;20102;-85
2023/06/15 08:57:57;;;;;;;19.00;11.50;;;;;;;24.04;79.80;100622.09;5091916;28;20028;-85
2023/06/15 09:00:22;;;;;;;20.55;10.55;;;;;;;24.06;77.99;100622.75;5100545;28;20136;-83
2023/06/15 09:02:52;;;;;;;22.33;12.43;;;;;;;24.26;78.66;100634.59;5095028;28;20028;-86
2023/06/15 09:05:18;;;;;;;31.98;11.50;;;;;;;24.37;77.34;100644.09;5091789;28;20032;-85
2023/06/15 09:07:43;;;;;;;19.80;12.27;;;;;;;24.17;77.57;100624.03;5091344;28;20656;-85
2023/06/15 09:10:16;;;;;;;28.15;14.52;;;;;;;24.17;77.00;100607.53;5092002;28;20451;-84
2023/06/15 09:12:52;;;;;;;18.25;11.93;;;;;;;24.26;77.19;100642.00;5092107;28;20071;-86
2023/06/15 09:15:24;;;;;;;29.58;12.20;;;;;;;24.31;77.27;100654.03;5092006;28;20032;-85
2023/06/15 09:17:51;;;;;;;31.75;10.68;;;;;;;24.36;76.52;100629.50;5092122;28;20024;-85
2023/06/15 09:20:18;;;;;;;19.17;10.88;;;;;;;24.44;75.64;100628.41;5092403;28;20035;-85
2023/06/15 09:22:45;;;;;;;23.17;10.75;;;;;;;24.47;74.91;100628.00;5092641;28;20032;-85
2023/06/15 09:25:12;;;;;;;20.50;10.13;;;;;;;24.49;75.40;100625.03;5092611;28;20483;-85
2023/06/15 09:27:38;;;;;;;32.03;10.30;;;;;;;24.74;74.58;100634.25;5091713;28;20070;-84
2023/06/15 09:30:06;;;;;;;16.50;10.48;;;;;;;24.74;73.75;100621.34;5094708;28;20483;-84
2023/06/15 09:32:31;;;;;;;12.85;9.32;;;;;;;24.89;73.98;100638.47;5093714;28;20035;-85
2023/06/15 09:35:00;;;;;;;31.63;10.75;;;;;;;24.58;74.46;100641.09;5098885;28;20032;-89
2023/06/15 09:37:29;;;;;;;20.23;9.45;;;;;;;24.63;75.74;100649.53;5112757;28;20030;-86
2023/06/15 09:39:56;;;;;;;17.02;9.90;;;;;;;24.59;75.02;100637.28;5106430;28;20089;-85
2023/06/15 09:42:27;;;;;;;17.50;10.05;;;;;;;24.70;75.08;100638.53;5091236;28;20028;-86
2023/06/15 09:44:54;;;;;;;25.35;10.98;;;;;;;24.51;74.96;100626.50;5092210;28;20447;-86
2023/06/15 09:47:20;;;;;;;18.05;11.68;;;;;;;24.82;75.05;100643.16;5092258;28;20532;-86
2023/06/15 09:49:48;;;;;;;21.75;8.93;;;;;;;24.77;73.61;100611.81;5091797;28;20047;-84
2023/06/15 09:52:13;;;;;;;18.20;9.15;;;;;;;24.88;72.59;100612.03;5091268;28;20020;-87
2023/06/15 09:54:39;;;;;;;17.17;9.77;;;;;;;25.08;72.05;100631.19;5091735;28;20028;-86
2023/06/15 09:57:06;;;;;;;24.60;9.45;;;;;;;24.78;71.45;100606.09;5068413;28;20151;-85
2023/06/15 09:59:32;;;;;;;14.27;9.93;;;;;;;24.92;72.29;100630.84;5068550;28;20048;-91
2023/06/15 10:02:00;;;;;;;19.95;10.65;;;;;;;25.03;72.08;100627.41;5068869;28;20048;-85
2023/06/15 10:04:32;;;;;;;31.27;9.43;;;;;;;24.98;71.29;100636.34;5068938;28;20429;-86
2023/06/15 10:07:03;;;;;;;26.73;10.23;;;;;;;24.82;71.50;100610.16;5068626;28;20059;-85
2023/06/15 10:09:34;;;;;;;21.73;11.02;;;;;;;24.91;71.78;100616.25;5068805;28;20082;-85
2023/06/15 10:12:09;;;;;;;28.13;11.32;;;;;;;24.87;71.73;100624.09;5068908;28;20111;-86
2023/06/15 10:14:42;;;;;;;21.48;11.95;;;;;;;24.92;72.26;100628.97;5068896;28;20033;-84
2023/06/15 10:17:10;;;;;;;20.33;11.15;;;;;;;24.94;72.19;100613.06;5069145;28;20144;-86
2023/06/15 10:19:42;;;;;;;19.98;9.07;;;;;;;25.01;71.12;100613.03;5069301;28;20107;-85
2023/06/15 10:22:10;;;;;;;;;;;;;;;25.04;71.06;100629.13;5053560;28;20527;-85
2023/06/15 10:24:36;;;;;;;23.48;10.40;;;;;;;24.77;72.65;100606.31;5069526;28;19908;-84
2023/06/15 10:27:03;;;;;;;22.77;10.50;;;;;;;25.01;71.48;100596.53;5055181;28;20056;-84
2023/06/15 10:29:36;;;;;;;50.17;12.27;;;;;;;25.08;71.06;100630.34;5092829;28;20099;-85
2023/06/15 10:32:16;;;;;;;21.08;9.85;;;;;;;24.78;71.80;100602.50;5101476;28;20028;-87
2023/06/15 10:35:09;;;;;;;35.35;10.45;;;;;;;24.90;71.61;100623.66;5108234;28;20027;-86
2023/06/15 10:38:12;;;;;;;21.98;12.13;;;;;;;24.86;71.98;100616.06;5036088;28;20104;-84
2023/06/15 10:40:45;;;;;;;20.38;10.05;;;;;;;24.83;71.63;100609.06;5028290;28;20493;-86
2023/06/15 10:43:19;;;;;;;31.70;12.07;;;;;;;24.89;72.28;100610.13;5029224;28;20398;-86
2023/06/15 10:45:46;;;;;;;20.23;10.48;;;;;;;25.15;70.48;100603.63;4990129;28;20042;-86
2023/06/15 10:48:24;;;;;;;35.13;16.33;;;;;;;25.32;70.34;100607.53;4992514;28;20445;-85
2023/06/15 10:50:51;;;;;;;16.60;11.10;;;;;;;25.13;70.62;100600.28;4989991;28;20042;-85
2023/06/15 10:53:25;;;;;;;31.17;10.35;;;;;;;25.29;70.34;100616.25;4973014;28;20105;-84
2023/06/15 10:55:58;;;;;;;19.85;11.23;;;;;;;25.16;70.27;100586.06;4974617;28;20147;-85
2023/06/15 10:58:26;;;;;;;16.13;10.75;;;;;;;24.90;70.31;100576.88;4990087;28;20046;-85
2023/06/15 11:01:07;;;;;;;19.67;10.88;;;;;;;25.02;70.26;100609.19;4976774;28;20034;-84
2023/06/15 11:03:33;;;;;;;30.45;11.45;;;;;;;25.20;70.61;100606.56;4990585;28;20089;-86
2023/06/15 11:06:03;;;;;;;18.33;10.75;;;;;;;25.27;70.27;100615.63;4977291;28;20038;-83
2023/06/15 11:08:44;;;;;;;17.38;10.43;;;;;;;24.84;69.94;100577.75;4994405;28;20160;-85
2023/06/15 11:11:13;;;;;;;41.53;10.48;;;;;;;24.89;71.16;100602.69;4990234;28;20045;-88
2023/06/15 11:13:57;;;;;;;18.70;10.90;;;;;;;24.90;71.51;100595.28;5001830;28;20040;-84
2023/06/15 11:16:30;;;;;;;30.83;12.85;;;;;;;24.71;72.85;100602.53;5077124;28;20088;-86